createdAt,value
2022-09-23T00:04:15.658Z,8.0
2022-09-23T00:09:21.869Z,8.0
2022-09-23T00:14:28.078Z,8.0
2022-09-23T00:19:34.285Z,8.0
2022-09-23T00:24:40.497Z,8.0
2022-09-23T00:29:46.701Z,9.0
2022-09-23T00:34:52.908Z,9.0
2022-09-23T00:39:59.121Z,9.0
2022-09-23T00:45:05.331Z,8.0
2022-09-23T00:50:11.533Z,8.0
2022-09-23T00:55:17.750Z,9.0
2022-09-23T01:00:23.961Z,8.0
2022-09-23T01:05:30.170Z,8.0
2022-09-23T01:10:36.369Z,8.0
2022-09-23T01:15:42.577Z,9.0
2022-09-23T01:20:47.815Z,9.0
2022-09-23T01:25:54.018Z,9.0
2022-09-23T01:30:59.336Z,9.0
2022-09-23T01:36:05.460Z,8.0
2022-09-23T01:41:11.677Z,8.0
2022-09-23T01:46:17.881Z,8.5
2022-09-23T01:51:24.086Z,8.0
2022-09-23T01:56:30.304Z,8.0
2022-09-23T02:01:36.554Z,8.0
2022-09-23T02:06:42.735Z,8.0
2022-09-23T02:11:48.921Z,8.0
2022-09-23T02:16:55.194Z,9.0
2022-09-23T02:22:01.334Z,8.0
2022-09-23T02:27:07.547Z,8.0
2022-09-23T02:32:13.870Z,8.0
2022-09-23T02:37:19.978Z,9.0
2022-09-23T02:42:26.168Z,9.0
2022-09-23T02:47:32.374Z,9.0
2022-09-23T02:52:38.583Z,9.0
2022-09-23T02:57:44.790Z,9.0
2022-09-23T03:02:51.002Z,9.0
2022-09-23T03:07:57.210Z,9.0
2022-09-23T03:13:03.424Z,9.0
2022-09-23T03:18:08.648Z,9.0
2022-09-23T03:23:14.861Z,9.0
2022-09-23T03:28:20.104Z,9.0
2022-09-23T03:33:28.640Z,9.0
2022-09-23T03:38:32.508Z,9.0
2022-09-23T03:43:39.053Z,8.0
2022-09-23T03:48:44.928Z,8.0
2022-09-23T03:53:51.132Z,8.0
2022-09-23T03:58:57.337Z,8.0
2022-09-23T04:04:03.552Z,8.0
2022-09-23T04:09:09.798Z,9.0
2022-09-23T04:14:15.962Z,9.0
2022-09-23T04:19:22.173Z,9.0
2022-09-23T04:24:28.376Z,9.0
2022-09-23T04:29:34.589Z,8.0
2022-09-23T04:34:40.806Z,9.0
2022-09-23T04:39:47.003Z,9.0
2022-09-23T04:44:53.205Z,8.0
2022-09-23T04:50:00.033Z,8.0
2022-09-23T04:55:09.203Z,8.0
2022-09-23T05:00:11.833Z,8.0
2022-09-23T05:05:18.042Z,8.0
2022-09-23T05:10:24.248Z,8.0
2022-09-23T05:15:29.488Z,8.0
2022-09-23T05:20:35.699Z,9.0
2022-09-23T05:25:41.909Z,8.0
2022-09-23T05:30:48.109Z,8.0
2022-09-23T05:35:54.320Z,8.0
2022-09-23T05:40:59.550Z,8.0
2022-09-23T05:46:08.225Z,8.0
2022-09-23T05:51:11.967Z,8.0
2022-09-23T05:56:18.182Z,8.0
2022-09-23T06:01:24.407Z,8.0
2022-09-23T06:06:30.589Z,8.0
2022-09-23T06:11:36.802Z,9.0
2022-09-23T06:16:43.014Z,9.0
2022-09-23T06:21:49.217Z,9.0
2022-09-23T06:26:55.421Z,9.0
2022-09-23T06:32:01.799Z,9.0
2022-09-23T06:37:16.422Z,10.0
2022-09-23T06:42:14.045Z,10.0
2022-09-23T06:47:20.255Z,10.0
2022-09-23T06:52:26.461Z,10.0
2022-09-23T06:57:32.673Z,9.5
2022-09-23T07:02:39.046Z,10.0
2022-09-23T07:07:45.095Z,9.5
2022-09-23T07:12:51.293Z,9.5
2022-09-23T07:17:57.500Z,11.0
2022-09-23T07:23:03.718Z,10.0
2022-09-23T07:28:08.947Z,10.0
2022-09-23T07:33:29.732Z,10.0
2022-09-23T07:38:20.392Z,11.0
2022-09-23T07:43:26.598Z,9.0
2022-09-23T07:48:34.852Z,9.0
2022-09-23T07:53:39.015Z,8.0
2022-09-23T07:58:45.221Z,8.0
2022-09-23T08:03:51.431Z,8.0
2022-09-23T08:08:57.675Z,8.0
2022-09-23T08:14:03.846Z,8.0
2022-09-23T08:19:10.055Z,8.0
2022-09-23T08:24:16.261Z,7.0
2022-09-23T08:29:22.489Z,7.0
2022-09-23T08:34:28.682Z,7.0
2022-09-23T08:39:34.896Z,7.0
2022-09-23T08:44:41.094Z,7.0
2022-09-23T08:49:47.324Z,7.0
2022-09-23T08:54:55.440Z,7.0
2022-09-23T08:59:59.735Z,6.0
2022-09-23T09:05:05.943Z,7.0
2022-09-23T09:10:12.156Z,7.0
2022-09-23T09:15:18.375Z,7.0
2022-09-23T09:20:24.589Z,7.0
2022-09-23T09:25:33.497Z,7.0
2022-09-23T09:30:36.153Z,7.0
2022-09-23T09:35:41.292Z,7.0
2022-09-23T09:40:47.619Z,7.0
2022-09-23T09:45:57.545Z,8.0
2022-09-23T09:50:59.923Z,8.0
2022-09-23T09:56:06.168Z,7.5
2022-09-23T10:01:12.383Z,8.0
2022-09-23T10:06:18.497Z,8.0
2022-09-23T10:11:24.707Z,8.0
2022-09-23T10:16:30.969Z,9.0
2022-09-23T10:21:37.122Z,9.0
2022-09-23T10:26:43.334Z,10.0
2022-09-23T10:31:49.538Z,9.0
2022-09-23T10:36:55.752Z,7.0
2022-09-23T10:42:01.958Z,7.0
2022-09-23T10:47:08.168Z,7.0
2022-09-23T10:52:14.386Z,8.0
2022-09-23T10:57:20.590Z,7.0
2022-09-23T11:02:26.802Z,7.0
2022-09-23T11:07:36.913Z,7.0
2022-09-23T11:12:39.225Z,6.5
2022-09-23T11:17:45.432Z,7.0
2022-09-23T11:22:50.671Z,6.0
2022-09-23T11:27:56.880Z,6.0
2022-09-23T11:38:08.328Z,6.0
2022-09-23T11:43:14.551Z,5.0
2022-09-23T11:48:20.746Z,5.0
2022-09-23T11:53:26.959Z,4.0
2022-09-23T11:58:33.237Z,5.0
2022-09-23T12:03:43.885Z,4.0
2022-09-23T12:08:45.588Z,4.0
2022-09-23T12:13:51.803Z,4.0
2022-09-23T12:18:58.006Z,4.0
2022-09-23T12:24:04.217Z,4.0
2022-09-23T12:29:10.423Z,3.5
2022-09-23T12:34:16.665Z,3.0
2022-09-23T12:39:22.853Z,3.0
2022-09-23T12:44:29.061Z,3.0
2022-09-23T12:49:35.261Z,3.0
2022-09-23T12:54:41.477Z,3.0
2022-09-23T12:59:47.684Z,3.0
2022-09-23T13:04:53.893Z,3.0
2022-09-23T13:10:00.129Z,3.0
2022-09-23T13:15:06.317Z,3.0
2022-09-23T13:20:11.546Z,3.0
2022-09-23T13:25:17.755Z,3.0
2022-09-23T13:30:26.142Z,3.0
2022-09-23T13:35:29.199Z,3.0
2022-09-23T13:40:35.485Z,3.0
2022-09-23T13:45:41.683Z,2.0
2022-09-23T13:50:47.829Z,2.0
2022-09-23T13:55:53.059Z,2.0
2022-09-23T14:00:59.354Z,2.0
2022-09-23T14:06:05.475Z,2.0
2022-09-23T14:11:11.689Z,2.0
2022-09-23T14:16:18.019Z,3.0
2022-09-23T14:21:24.105Z,3.0
2022-09-23T14:26:30.316Z,3.0
2022-09-23T14:31:36.549Z,3.0
2022-09-23T14:36:42.735Z,4.0
2022-09-23T14:41:48.942Z,3.0
2022-09-23T14:46:55.153Z,3.0
2022-09-23T14:52:01.361Z,17.0
2022-09-23T14:57:07.570Z,21.0
2022-09-23T15:02:13.784Z,4.0
2022-09-23T15:07:19.985Z,3.0
2022-09-23T15:12:26.209Z,20.5
2022-09-23T15:17:31.436Z,7.0
2022-09-23T15:22:37.639Z,5.0
2022-09-23T15:27:43.852Z,13.0
2022-09-23T15:32:50.069Z,6.0
2022-09-23T15:37:56.269Z,5.0
2022-09-23T15:43:02.510Z,5.0
2022-09-23T15:48:08.689Z,5.0
2022-09-23T15:53:14.899Z,5.0
2022-09-23T15:58:21.110Z,6.0
2022-09-23T16:03:27.325Z,6.0
2022-09-23T16:08:33.568Z,6.0
2022-09-23T16:13:39.737Z,6.0
2022-09-23T16:18:45.948Z,6.0
2022-09-23T16:23:52.149Z,6.0
2022-09-23T16:28:58.359Z,6.0
2022-09-23T16:34:04.564Z,7.0
2022-09-23T16:39:10.955Z,6.5
2022-09-23T16:44:16.988Z,6.0
2022-09-23T16:49:23.192Z,7.0
2022-09-23T16:54:29.406Z,7.0
2022-09-23T16:59:35.616Z,6.5
2022-09-23T17:04:40.848Z,7.0
2022-09-23T17:09:47.058Z,7.0
2022-09-23T17:14:53.266Z,7.0
2022-09-23T17:19:59.515Z,7.0
2022-09-23T17:25:05.685Z,7.0
2022-09-23T17:30:12.251Z,8.5
2022-09-23T17:35:18.117Z,9.0
2022-09-23T17:40:24.383Z,11.0
2022-09-23T17:45:30.542Z,11.0
2022-09-23T17:50:36.726Z,11.0
2022-09-23T17:55:42.939Z,11.5
2022-09-23T18:00:49.214Z,16.0
2022-09-23T18:05:55.354Z,20.0
2022-09-23T18:11:01.561Z,19.0
2022-09-23T18:16:07.846Z,16.0
2022-09-23T18:21:13.979Z,12.0
2022-09-23T18:26:20.188Z,11.0
2022-09-23T18:31:26.496Z,11.0
2022-09-23T18:36:32.611Z,12.0
2022-09-23T18:41:38.813Z,12.0
2022-09-23T18:46:45.021Z,10.0
2022-09-23T18:51:50.259Z,11.0
2022-09-23T18:56:56.482Z,10.0
2022-09-23T19:02:01.935Z,10.0
2022-09-23T19:07:07.915Z,9.5
2022-09-23T19:12:13.149Z,9.0
2022-09-23T19:17:19.352Z,9.0
2022-09-23T19:22:25.569Z,9.0
2022-09-23T19:27:31.768Z,9.0
2022-09-23T19:32:37.979Z,10.0
2022-09-23T19:37:44.183Z,9.0
2022-09-23T19:42:50.390Z,9.0
2022-09-23T19:47:56.603Z,9.0
2022-09-23T19:53:02.815Z,10.0
2022-09-23T19:58:09.022Z,12.0
2022-09-23T20:03:15.230Z,12.0
2022-09-23T20:08:21.447Z,14.0
2022-09-23T20:13:27.660Z,15.5
2022-09-23T20:18:33.851Z,15.0
2022-09-23T20:23:40.064Z,16.0
2022-09-23T20:28:46.274Z,16.0
2022-09-23T20:33:52.482Z,15.0
2022-09-23T20:38:58.694Z,13.0
2022-09-23T20:44:04.905Z,14.0
2022-09-23T20:49:11.110Z,14.0
2022-09-23T20:54:17.318Z,14.0
2022-09-23T20:59:22.559Z,14.0
2022-09-23T21:04:28.763Z,16.0
2022-09-23T21:09:33.999Z,15.0
2022-09-23T21:14:40.208Z,16.0
2022-09-23T21:19:46.420Z,17.0
2022-09-23T21:25:26.460Z,17.0
2022-09-23T21:29:58.840Z,17.5
2022-09-23T21:35:05.056Z,18.0
2022-09-23T21:40:11.350Z,17.0
2022-09-23T21:45:17.492Z,18.0
2022-09-23T21:50:23.711Z,20.0
2022-09-23T21:55:29.909Z,20.0
2022-09-23T22:00:36.231Z,21.0
2022-09-23T22:05:42.327Z,20.5
2022-09-23T22:10:48.538Z,21.0
2022-09-23T22:15:54.805Z,20.0
2022-09-23T22:21:00.976Z,19.0
2022-09-23T22:26:07.197Z,17.0
2022-09-23T22:31:13.440Z,16.0
2022-09-23T22:36:19.604Z,15.0
2022-09-23T22:41:25.818Z,14.0
2022-09-23T22:46:32.108Z,14.0
2022-09-23T22:51:38.240Z,14.0
2022-09-23T22:56:43.483Z,13.0
2022-09-23T23:01:49.815Z,13.0
2022-09-23T23:06:54.929Z,13.0
2022-09-23T23:12:01.156Z,13.0
2022-09-23T23:17:07.379Z,12.0
2022-09-23T23:22:13.581Z,13.0
2022-09-23T23:27:19.792Z,12.0
2022-09-23T23:32:26.000Z,12.0
2022-09-23T23:37:32.471Z,12.0
2022-09-23T23:42:38.431Z,12.0
2022-09-23T23:47:44.646Z,13.0
2022-09-23T23:52:50.875Z,13.0
2022-09-23T23:57:57.087Z,13.0
